Time;durP1;ratioP1;P1;durP2;ratioP2;P2;SDS_P1;SDS_P2;PMS_P1;PMS_P2;Temp;Humidity;BMP_temperature;BMP_pressure;BME280_temperature;BME280_humidity;BME280_pressure;Samples;Min_cycle;Max_cycle;Signal;HPM_P1;HPM_P2
2021/12/13 00:00:15;;;;;;;56.93;27.70;;;9.10;99.90;;;;;;4972347;28;20216;-53
2021/12/13 00:02:49;;;;;;;53.53;26.10;;;9.10;99.90;;;;;;4971858;28;20257;-55
2021/12/13 00:05:20;;;;;;;56.90;26.50;;;9.10;99.90;;;;;;4972058;28;20666;-56
2021/12/13 00:07:55;;;;;;;51.00;25.40;;;9.10;99.90;;;;;;4972321;28;20680;-57
2021/12/13 00:10:24;;;;;;;51.57;25.23;;;9.10;99.90;;;;;;4972328;28;20673;-54
2021/12/13 00:13:00;;;;;;;46.10;24.67;;;9.10;99.90;;;;;;4971836;28;20208;-53
2021/12/13 00:15:30;;;;;;;38.83;21.87;;;9.10;99.90;;;;;;4971885;28;20228;-57
2021/12/13 00:17:58;;;;;;;45.10;23.57;;;9.20;99.40;;;;;;4971911;28;20232;-53
2021/12/13 00:20:36;;;;;;;39.37;22.53;;;9.20;91.90;;;;;;4972025;28;20215;-57
2021/12/13 00:23:13;;;;;;;42.73;23.03;;;9.10;78.70;;;;;;4971790;28;20215;-56
2021/12/13 00:25:42;;;;;;;42.57;23.07;;;9.20;73.10;;;;;;4971889;28;20709;-53
2021/12/13 00:28:13;;;;;;;43.50;21.80;;;9.20;53.10;;;;;;4971696;28;20265;-55
2021/12/13 00:30:48;;;;;;;40.60;21.43;;;9.20;44.60;;;;;;4972100;28;20205;-57
2021/12/13 00:33:26;;;;;;;40.10;21.10;;;9.10;35.40;;;;;;4971670;28;20267;-55
2021/12/13 00:36:00;;;;;;;39.83;20.17;;;9.10;29.30;;;;;;4971855;28;20227;-55
2021/12/13 00:38:31;;;;;;;35.57;19.77;;;9.20;33.70;;;;;;4971772;28;20212;-53
2021/12/13 00:41:04;;;;;;;35.87;18.03;;;9.20;26.20;;;;;;4972007;28;20211;-55
2021/12/13 00:43:37;;;;;;;35.60;19.13;;;9.10;4.70;;;;;;4971688;28;20213;-55
2021/12/13 00:46:08;;;;;;;34.40;18.63;;;9.00;4.10;;;;;;4971563;28;20261;-57
2021/12/13 00:48:38;;;;;;;34.63;18.57;;;9.00;19.30;;;;;;4970549;28;20216;-57
2021/12/13 00:51:09;;;;;;;33.30;18.47;;;9.00;19.90;;;;;;4971633;28;20236;-59
2021/12/13 00:53:41;;;;;;;29.67;16.90;;;9.00;23.40;;;;;;4971671;28;20621;-57
2021/12/13 00:56:41;;;;;;;32.07;17.80;;;9.00;24.30;;;;;;4971929;28;20233;-56
2021/12/13 00:59:09;;;;;;;31.47;17.43;;;9.10;27.30;;;;;;4971165;28;20688;-55
2021/12/13 01:01:37;;;;;;;33.70;18.03;;;9.00;15.70;;;;;;4970986;28;20219;-57
2021/12/13 01:04:07;;;;;;;35.73;19.13;;;9.00;24.90;;;;;;4971481;28;20766;-58
2021/12/13 01:07:15;;;;;;;31.17;17.23;;;9.00;29.00;;;;;;4971492;28;20261;-55
2021/12/13 01:10:50;;;;;;;34.10;17.40;;;9.00;32.80;;;;;;4970935;28;20208;-56
2021/12/13 01:13:22;;;;;;;29.90;16.63;;;9.00;32.60;;;;;;4970974;28;20209;-57
2021/12/13 01:16:01;;;;;;;29.37;17.63;;;9.10;31.50;;;;;;4971109;28;20280;-56
2021/12/13 01:18:55;;;;;;;31.67;16.97;;;9.00;24.90;;;;;;4971427;28;20246;-56
2021/12/13 01:21:40;;;;;;;32.87;18.87;;;9.10;19.70;;;;;;4970787;28;20293;-57
2021/12/13 01:24:40;;;;;;;31.70;18.40;;;9.00;13.70;;;;;;4971086;28;20708;-57
2021/12/13 01:27:08;;;;;;;35.93;18.87;;;9.00;9.20;;;;;;4971109;28;20212;-56
2021/12/13 01:29:35;;;;;;;35.33;19.50;;;9.00;9.40;;;;;;4971445;28;20211;-56
2021/12/13 01:32:07;;;;;;;32.27;18.97;;;9.00;9.30;;;;;;4970486;28;20273;-58
2021/12/13 01:34:37;;;;;;;37.90;21.23;;;9.00;1.00;;;;;;4971208;28;20722;-57
2021/12/13 01:37:12;;;;;;;36.03;20.10;;;9.00;4.50;;;;;;4970941;28;20644;-57
2021/12/13 01:39:41;;;;;;;35.57;19.60;;;9.10;1.20;;;;;;4971675;28;20636;-58
2021/12/13 01:42:13;;;;;;;37.90;21.50;;;9.00;1.00;;;;;;4971214;28;20266;-58
2021/12/13 01:44:43;;;;;;;33.70;19.50;;;9.00;1.00;;;;;;4970979;28;20735;-56
2021/12/13 01:47:13;;;;;;;32.97;20.50;;;9.00;1.00;;;;;;4971191;28;20234;-55
2021/12/13 01:49:42;;;;;;;36.53;20.10;;;9.00;1.00;;;;;;4970812;28;20212;-56
2021/12/13 01:52:17;;;;;;;37.77;20.70;;;9.10;1.00;;;;;;4970427;28;20212;-58
2021/12/13 01:54:44;;;;;;;31.80;18.60;;;9.00;1.00;;;;;;4970527;28;20280;-56
2021/12/13 01:57:23;;;;;;;35.73;19.23;;;9.10;1.00;;;;;;4970829;28;20276;-56
2021/12/13 01:59:56;;;;;;;38.13;20.60;;;9.00;1.00;;;;;;4970487;28;20234;-54
2021/12/13 02:02:36;;;;;;;35.00;18.97;;;9.00;1.00;;;;;;4970407;28;20222;-57
2021/12/13 02:05:07;;;;;;;31.83;18.87;;;9.00;1.00;;;;;;4970426;28;20227;-55
2021/12/13 02:07:42;;;;;;;31.23;18.10;;;9.10;1.00;;;;;;4970584;28;20683;-55
2021/12/13 02:10:14;;;;;;;26.23;15.57;;;9.10;1.00;;;;;;4970112;28;20822;-57
2021/12/13 02:12:44;;;;;;;30.73;17.03;;;9.10;1.00;;;;;;4970452;28;20212;-57
2021/12/13 02:17:59;;;;;;;28.90;15.77;;;9.00;1.00;;;;;;4970420;28;20278;-57
2021/12/13 02:20:31;;;;;;;26.17;16.07;;;9.00;1.00;;;;;;4970280;28;20208;-58
2021/12/13 02:22:59;;;;;;;27.50;15.40;;;9.00;1.00;;;;;;4969713;28;20341;-54
2021/12/13 02:25:29;;;;;;;30.07;16.33;;;9.00;1.00;;;;;;4970565;28;20231;-55
2021/12/13 02:28:00;;;;;;;25.23;14.80;;;9.00;1.00;;;;;;4970247;28;20211;-57
2021/12/13 02:30:36;;;;;;;25.17;14.77;;;8.90;1.00;;;;;;4970296;28;20212;-57
2021/12/13 02:33:05;;;;;;;24.87;14.13;;;9.00;1.00;;;;;;4969890;28;20604;-57
2021/12/13 02:35:36;;;;;;;23.10;14.37;;;8.90;1.00;;;;;;4970428;28;20240;-56
2021/12/13 02:38:07;;;;;;;25.70;14.53;;;9.00;1.00;;;;;;4970054;28;20711;-53
2021/12/13 02:40:34;;;;;;;23.77;13.90;;;9.00;99.90;;;;;;4970210;28;20706;-56
2021/12/13 02:43:02;;;;;;;25.57;14.77;;;9.00;99.90;;;;;;4969675;28;20215;-53
2021/12/13 02:45:32;;;;;;;20.53;12.83;;;8.90;99.90;;;;;;4970380;28;20642;-56
2021/12/13 02:48:04;;;;;;;27.80;14.67;;;8.90;99.90;;;;;;4970251;28;20212;-56
2021/12/13 02:50:43;;;;;;;22.43;14.53;;;8.90;99.90;;;;;;4970277;28;20621;-54
2021/12/13 02:53:14;;;;;;;22.80;13.40;;;9.00;99.90;;;;;;4969870;28;20258;-56
2021/12/13 02:55:41;;;;;;;23.17;13.40;;;8.90;99.90;;;;;;4970001;28;20237;-57
2021/12/13 02:58:13;;;;;;;23.10;13.20;;;8.90;99.90;;;;;;4969686;28;20703;-53
2021/12/13 03:00:45;;;;;;;20.73;13.60;;;8.90;99.90;;;;;;4969604;28;20222;-53
2021/12/13 03:03:17;;;;;;;20.17;13.10;;;8.90;99.90;;;;;;4969489;28;20269;-53
2021/12/13 03:05:48;;;;;;;23.13;13.47;;;8.80;99.90;;;;;;4969781;28;20224;-54
2021/12/13 03:08:23;;;;;;;18.93;12.53;;;8.90;99.90;;;;;;4969685;28;20211;-57
2021/12/13 03:10:53;;;;;;;21.43;13.07;;;8.90;99.90;;;;;;4969789;28;20221;-53
2021/12/13 03:13:21;;;;;;;21.20;13.10;;;8.80;99.90;;;;;;4973185;28;20246;-54
2021/12/13 03:15:55;;;;;;;19.67;11.57;;;8.90;99.90;;;;;;4972694;28;20576;-55
2021/12/13 03:18:28;;;;;;;19.80;12.57;;;8.80;99.90;;;;;;4973030;28;20704;-53
2021/12/13 03:21:08;;;;;;;19.70;12.00;;;8.90;99.90;;;;;;4973132;28;20628;-56
2021/12/13 03:23:56;;;;;;;17.93;12.07;;;8.80;99.90;;;;;;4972966;28;20304;-57
2021/12/13 03:26:54;;;;;;;18.97;11.83;;;8.80;99.90;;;;;;4972984;28;20772;-54
2021/12/13 03:29:28;;;;;;;19.30;11.20;;;8.80;99.90;;;;;;4972666;28;20214;-53
2021/12/13 03:31:58;;;;;;;16.30;11.20;;;8.80;99.90;;;;;;4972769;28;20216;-53
2021/12/13 03:34:28;;;;;;;22.23;11.37;;;8.80;99.90;;;;;;4972738;28;20225;-54
2021/12/13 03:37:02;;;;;;;16.77;10.20;;;8.80;99.90;;;;;;4972618;28;20214;-53
2021/12/13 03:39:32;;;;;;;15.87;10.00;;;8.70;99.90;;;;;;4972539;28;20266;-55
2021/12/13 03:42:01;;;;;;;17.40;10.83;;;8.80;99.90;;;;;;4972751;28;20265;-52
2021/12/13 03:44:32;;;;;;;17.37;10.80;;;8.70;99.90;;;;;;4972557;28;20231;-53
2021/12/13 03:47:08;;;;;;;15.70;10.87;;;8.70;99.90;;;;;;4972635;28;20265;-55
2021/12/13 03:49:41;;;;;;;14.30;10.23;;;8.70;99.90;;;;;;4972859;28;20225;-52
2021/12/13 03:52:11;;;;;;;14.03;9.63;;;8.70;99.90;;;;;;4972047;28;20211;-55
2021/12/13 03:54:40;;;;;;;16.70;10.43;;;8.70;99.90;;;;;;4972499;28;20243;-56
2021/12/13 03:57:09;;;;;;;13.33;9.50;;;8.70;99.90;;;;;;4972433;28;20224;-53
2021/12/13 03:59:40;;;;;;;16.07;9.60;;;8.70;99.90;;;;;;4972326;28;20228;-55
2021/12/13 04:02:09;;;;;;;14.57;9.70;;;8.70;99.90;;;;;;4972477;28;20219;-55
2021/12/13 04:04:40;;;;;;;17.70;10.13;;;8.60;99.90;;;;;;4972385;28;20247;-51
2021/12/13 04:07:10;;;;;;;16.33;9.60;;;8.60;99.90;;;;;;4972370;28;20195;-55
2021/12/13 04:09:39;;;;;;;16.70;9.87;;;8.60;99.90;;;;;;4972422;28;20272;-55
2021/12/13 04:12:08;;;;;;;15.23;9.20;;;8.60;99.90;;;;;;4972033;28;20212;-52
2021/12/13 04:14:41;;;;;;;15.27;9.13;;;8.60;99.90;;;;;;4972071;28;20231;-55
2021/12/13 04:17:22;;;;;;;15.63;8.77;;;8.60;99.90;;;;;;4972214;28;20696;-54
2021/12/13 04:19:53;;;;;;;14.50;9.07;;;8.60;99.90;;;;;;4973226;28;20264;-54
2021/12/13 04:22:24;;;;;;;14.47;8.33;;;8.60;99.90;;;;;;4971727;28;20215;-50
2021/12/13 04:24:55;;;;;;;15.07;9.03;;;8.60;99.90;;;;;;4971848;28;20283;-56
2021/12/13 04:27:26;;;;;;;15.37;9.17;;;8.50;99.90;;;;;;4972345;28;20213;-53
2021/12/13 04:29:59;;;;;;;17.53;9.63;;;8.50;99.90;;;;;;4971961;28;20265;-55
2021/12/13 04:32:30;;;;;;;18.57;10.87;;;8.50;99.90;;;;;;4972102;28;20218;-55
2021/12/13 04:35:03;;;;;;;16.10;10.60;;;8.40;1.00;;;;;;4972058;28;20292;-51
2021/12/13 04:37:38;;;;;;;16.03;10.23;;;8.40;1.00;;;;;;4971909;28;20256;-55
2021/12/13 04:40:09;;;;;;;15.70;9.80;;;8.50;1.00;;;;;;4971772;28;20219;-52
2021/12/13 04:42:36;;;;;;;15.00;10.43;;;8.40;1.00;;;;;;4971878;28;20689;-53
2021/12/13 04:45:07;;;;;;;18.43;10.63;;;8.40;1.00;;;;;;4971637;28;20275;-55
2021/12/13 04:47:38;;;;;;;16.40;10.53;;;8.40;1.00;;;;;;4971843;28;20280;-54
2021/12/13 04:50:11;;;;;;;17.90;11.37;;;8.40;1.00;;;;;;4971600;28;20222;-56
2021/12/13 04:52:40;;;;;;;16.77;11.13;;;8.40;1.00;;;;;;4971083;28;20272;-55
2021/12/13 04:55:14;;;;;;;15.53;10.37;;;8.40;1.00;;;;;;4971905;28;20231;-54
2021/12/13 04:57:41;;;;;;;18.57;10.57;;;8.40;1.00;;;;;;4971495;28;20285;-52
2021/12/13 05:00:13;;;;;;;17.23;10.70;;;8.40;1.00;;;;;;4971321;28;20224;-55
2021/12/13 05:02:44;;;;;;;17.27;11.67;;;8.40;1.00;;;;;;4970808;28;20212;-54
2021/12/13 05:05:12;;;;;;;16.83;10.83;;;8.40;1.00;;;;;;4971092;28;20718;-55
2021/12/13 05:07:41;;;;;;;17.17;11.27;;;8.40;1.00;;;;;;4971564;28;20204;-55
2021/12/13 05:10:10;;;;;;;18.70;10.90;;;8.40;1.00;;;;;;4971374;28;20677;-54
2021/12/13 05:12:38;;;;;;;15.93;10.50;;;8.50;1.00;;;;;;4971180;28;20207;-56
2021/12/13 05:15:08;;;;;;;15.67;10.37;;;8.40;1.00;;;;;;4971383;28;20274;-50
2021/12/13 05:17:38;;;;;;;16.53;11.33;;;8.50;1.00;;;;;;4971077;28;20229;-53
2021/12/13 05:20:16;;;;;;;19.63;11.10;;;8.50;1.00;;;;;;4971536;28;20614;-54
2021/12/13 05:22:49;;;;;;;18.90;10.90;;;8.50;1.00;;;;;;4970996;28;20577;-54
2021/12/13 05:25:26;;;;;;;19.70;10.53;;;8.40;1.00;;;;;;4971052;28;20284;-53
2021/12/13 05:28:00;;;;;;;18.33;11.30;;;8.40;1.00;;;;;;4978605;28;20207;-53
2021/12/13 05:30:29;;;;;;;20.23;10.50;;;8.50;1.00;;;;;;5017218;28;20218;-55
2021/12/13 05:33:05;;;;;;;16.77;11.60;;;8.40;99.90;;;;;;5034672;28;20218;-53
2021/12/13 05:35:35;;;;;;;18.73;11.00;;;8.40;99.90;;;;;;4989376;28;20231;-54
2021/12/13 05:38:06;;;;;;;15.87;10.17;;;8.40;99.90;;;;;;4990016;28;20257;-54
2021/12/13 05:40:38;;;;;;;16.43;10.50;;;8.40;99.90;;;;;;4989792;28;20209;-55
2021/12/13 05:43:18;;;;;;;18.17;10.47;;;8.40;99.90;;;;;;5044504;28;20215;-52
2021/12/13 05:45:50;;;;;;;16.10;10.47;;;8.40;99.90;;;;;;5072061;28;20712;-53
2021/12/13 05:48:20;;;;;;;18.73;10.27;;;8.40;99.90;;;;;;5071948;28;20745;-53
2021/12/13 05:50:50;;;;;;;15.93;10.27;;;8.30;99.90;;;;;;5071845;28;20207;-55
2021/12/13 05:53:20;;;;;;;15.23;10.47;;;8.30;1.00;;;;;;5071714;28;20642;-51
2021/12/13 05:55:53;;;;;;;19.17;10.97;;;8.30;1.00;;;;;;5071867;28;20234;-54
2021/12/13 05:58:46;;;;;;;18.53;10.07;;;8.30;1.00;;;;;;5071969;28;20223;-54
2021/12/13 06:01:17;;;;;;;16.53;10.13;;;8.30;1.00;;;;;;5047529;28;20213;-55
2021/12/13 06:03:52;;;;;;;15.03;9.53;;;8.30;1.00;;;;;;5071781;28;20304;-54
2021/12/13 06:06:25;;;;;;;16.43;10.07;;;8.30;1.00;;;;;;5071911;28;20284;-53
2021/12/13 06:08:55;;;;;;;15.73;10.37;;;8.30;1.00;;;;;;5071788;28;20203;-55
2021/12/13 06:11:32;;;;;;;14.83;9.50;;;8.30;99.90;;;;;;5071369;28;20236;-53
2021/12/13 06:14:04;;;;;;;17.20;10.53;;;8.30;99.90;;;;;;5004397;28;20770;-56
2021/12/13 06:16:44;;;;;;;21.60;9.70;;;8.30;99.90;;;;;;4989628;28;20209;-55
2021/12/13 06:19:20;;;;;;;19.20;10.50;;;8.30;99.90;;;;;;4989124;28;20229;-58
2021/12/13 06:21:55;;;;;;;17.43;10.53;;;8.30;99.90;;;;;;5013925;28;20210;-54
2021/12/13 06:24:27;;;;;;;14.20;9.73;;;8.30;99.90;;;;;;5070864;28;20711;-52
2021/12/13 06:27:06;;;;;;;14.97;9.63;;;8.30;99.90;;;;;;5071245;28;20208;-55
2021/12/13 06:29:59;;;;;;;19.93;11.03;;;8.30;99.90;;;;;;5071416;28;20254;-54
2021/12/13 06:32:35;;;;;;;17.00;10.07;;;8.30;99.90;;;;;;4986582;28;20572;-56
2021/12/13 06:35:31;;;;;;;17.10;10.03;;;8.30;99.90;;;;;;4988971;28;20240;-49
2021/12/13 06:37:58;;;;;;;16.17;10.20;;;8.30;99.90;;;;;;4988849;28;20327;-54
2021/12/13 06:40:27;;;;;;;15.67;9.93;;;8.30;99.90;;;;;;4989209;28;20213;-50
2021/12/13 06:42:58;;;;;;;15.97;10.23;;;8.30;99.90;;;;;;4988014;28;20648;-55
2021/12/13 06:45:29;;;;;;;15.40;10.23;;;8.30;99.90;;;;;;4988818;28;20286;-49
2021/12/13 06:47:57;;;;;;;17.63;10.33;;;8.30;99.90;;;;;;4991373;28;20221;-55
2021/12/13 06:50:27;;;;;;;17.13;10.20;;;8.30;99.90;;;;;;4992534;28;20212;-53
2021/12/13 06:53:10;;;;;;;17.33;10.23;;;8.30;99.90;;;;;;4991907;28;20213;-54
2021/12/13 06:55:37;;;;;;;16.83;10.73;;;8.30;99.90;;;;;;5047379;28;20601;-55
2021/12/13 06:58:15;;;;;;;14.70;9.43;;;8.30;99.90;;;;;;5075005;28;20276;-56
2021/12/13 07:00:42;;;;;;;14.93;9.10;;;8.20;99.90;;;;;;5074241;28;20271;-55
2021/12/13 07:03:12;;;;;;;20.50;10.53;;;8.30;99.90;;;;;;5074237;28;20214;-55
2021/12/13 07:05:43;;;;;;;18.27;10.37;;;8.20;99.90;;;;;;5074516;28;20230;-54
2021/12/13 07:08:16;;;;;;;13.77;9.60;;;8.20;99.90;;;;;;5074318;28;20214;-52
2021/12/13 07:10:55;;;;;;;15.97;9.53;;;8.20;99.90;;;;;;5074638;28;20206;-53
2021/12/13 07:13:28;;;;;;;18.80;10.00;;;8.30;99.90;;;;;;5073931;28;20708;-58
2021/12/13 07:15:59;;;;;;;16.70;9.63;;;8.30;99.90;;;;;;5074362;28;20222;-53
2021/12/13 07:18:30;;;;;;;14.43;10.00;;;8.30;99.90;;;;;;5074052;28;20226;-53
2021/12/13 07:21:05;;;;;;;20.13;10.43;;;8.20;99.90;;;;;;5074216;28;20667;-55
2021/12/13 07:23:57;;;;;;;13.63;8.63;;;8.20;99.90;;;;;;5074042;28;20213;-56
2021/12/13 07:26:37;;;;;;;15.17;9.30;;;8.20;99.90;;;;;;5074621;28;20589;-54
2021/12/13 07:29:09;;;;;;;14.17;9.33;;;8.30;99.90;;;;;;5073842;28;20210;-58
2021/12/13 07:31:36;;;;;;;13.37;8.83;;;8.30;99.90;;;;;;5073779;28;20210;-53
2021/12/13 07:34:15;;;;;;;15.10;8.97;;;8.30;99.90;;;;;;5074344;28;20207;-56
2021/12/13 07:36:43;;;;;;;13.13;9.13;;;8.30;99.90;;;;;;5074007;28;20265;-52
2021/12/13 07:39:15;;;;;;;13.60;8.53;;;8.30;99.90;;;;;;5074091;28;20226;-50
2021/12/13 07:41:46;;;;;;;17.37;9.43;;;8.30;99.90;;;;;;5073234;28;20266;-53
2021/12/13 07:44:33;;;;;;;16.57;9.57;;;8.30;99.90;;;;;;5073932;28;20601;-51
2021/12/13 07:47:02;;;;;;;15.10;9.40;;;8.40;99.90;;;;;;5073748;28;20216;-54
2021/12/13 07:49:33;;;;;;;15.43;8.77;;;8.30;99.90;;;;;;5073951;28;20207;-57
2021/12/13 07:52:02;;;;;;;14.40;8.67;;;8.30;99.90;;;;;;5073013;28;20211;-58
2021/12/13 07:54:38;;;;;;;15.20;9.00;;;8.30;99.90;;;;;;5073860;28;20289;-53
2021/12/13 07:57:14;;;;;;;12.87;9.23;;;8.40;99.90;;;;;;5073438;28;20209;-54
2021/12/13 07:59:42;;;;;;;15.93;8.53;;;8.30;99.90;;;;;;5073444;28;20233;-58
2021/12/13 08:02:17;;;;;;;13.37;8.97;;;8.30;99.90;;;;;;5072763;28;20256;-52
2021/12/13 08:04:47;;;;;;;12.33;8.53;;;8.30;99.90;;;;;;4952066;28;20239;-53
2021/12/13 08:07:16;;;;;;;13.77;7.90;;;8.30;99.90;;;;;;4952672;29;20218;-50
2021/12/13 08:09:46;;;;;;;12.83;8.60;;;8.40;99.90;;;;;;4957438;28;20207;-56
2021/12/13 08:12:20;;;;;;;15.17;8.53;;;8.30;99.90;;;;;;5072943;28;20204;-52
2021/12/13 08:14:51;;;;;;;10.97;7.90;;;8.30;99.90;;;;;;5072653;28;20230;-55
2021/12/13 08:17:22;;;;;;;11.20;7.97;;;8.30;99.90;;;;;;5073589;28;20211;-52
2021/12/13 08:19:56;;;;;;;13.27;8.00;;;8.30;99.90;;;;;;5073248;28;20712;-51
2021/12/13 08:22:28;;;;;;;15.57;8.40;;;8.40;99.90;;;;;;5072622;28;20627;-54
2021/12/13 08:24:58;;;;;;;12.77;7.83;;;8.40;99.90;;;;;;5073130;28;20226;-53
2021/12/13 08:27:35;;;;;;;14.00;7.73;;;8.40;99.90;;;;;;5072907;28;20258;-54
2021/12/13 08:30:14;;;;;;;13.17;7.90;;;8.40;99.90;;;;;;5073039;28;20569;-55
2021/12/13 08:32:57;;;;;;;11.40;8.10;;;8.40;99.90;;;;;;5072280;28;20670;-55
2021/12/13 08:35:24;;;;;;;14.03;7.80;;;8.40;99.90;;;;;;5073091;28;20230;-56
2021/12/13 08:37:57;;;;;;;13.63;8.07;;;8.40;99.90;;;;;;5072470;28;20207;-57
2021/12/13 08:40:27;;;;;;;13.33;7.53;;;8.40;99.90;;;;;;5072859;28;20229;-57
2021/12/13 08:42:57;;;;;;;10.87;7.10;;;8.50;99.90;;;;;;5072296;28;20205;-57
2021/12/13 08:45:31;;;;;;;12.40;7.13;;;8.50;99.90;;;;;;5072226;28;20227;-59
2021/12/13 08:48:04;;;;;;;10.60;7.20;;;8.50;99.90;;;;;;5072972;28;20553;-57
2021/12/13 08:50:34;;;;;;;10.70;6.70;;;8.50;99.90;;;;;;5072229;28;20616;-58
2021/12/13 08:53:07;;;;;;;11.87;7.13;;;8.40;99.90;;;;;;5072011;28;20286;-58
2021/12/13 08:55:37;;;;;;;9.53;6.97;;;8.50;99.90;;;;;;5072420;28;20227;-58
2021/12/13 08:58:15;;;;;;;9.20;7.07;;;8.50;99.90;;;;;;5072764;28;20208;-57
2021/12/13 09:00:58;;;;;;;10.30;7.10;;;8.50;99.90;;;;;;5071750;28;20593;-58
2021/12/13 09:03:33;;;;;;;8.63;6.67;;;8.50;99.90;;;;;;5072054;28;20619;-59
2021/12/13 09:06:10;;;;;;;10.97;7.03;;;8.60;99.90;;;;;;5072423;28;20231;-58
2021/12/13 09:08:42;;;;;;;8.77;6.90;;;8.60;99.90;;;;;;5072026;28;20210;-58
2021/12/13 09:11:27;;;;;;;11.00;7.67;;;8.60;99.90;;;;;;5071265;28;20219;-59
2021/12/13 09:13:58;;;;;;;10.50;7.03;;;8.60;99.90;;;;;;5072059;28;20204;-59
2021/12/13 09:16:30;;;;;;;8.97;6.47;;;8.60;99.90;;;;;;5072386;28;20205;-59
2021/12/13 09:19:10;;;;;;;10.13;6.57;;;8.60;99.90;;;;;;5072133;28;20597;-54
2021/12/13 09:21:52;;;;;;;9.93;6.40;;;8.60;99.90;;;;;;5071750;28;20214;-57
2021/12/13 09:24:40;;;;;;;9.67;6.37;;;8.60;99.90;;;;;;5002699;28;20595;-57
2021/12/13 09:27:32;;;;;;;9.33;6.50;;;8.60;99.90;;;;;;4990243;28;20213;-58
2021/12/13 09:30:16;;;;;;;8.20;6.13;;;8.50;99.30;;;;;;4989758;28;20210;-58
2021/12/13 09:32:49;;;;;;;9.30;6.53;;;8.60;99.90;;;;;;4989882;28;20219;-58
2021/12/13 09:35:36;;;;;;;8.53;5.80;;;8.60;99.90;;;;;;4989941;28;20609;-59
2021/12/13 09:38:33;;;;;;;8.67;5.40;;;8.60;96.40;;;;;;4989831;28;20214;-58
2021/12/13 09:41:08;;;;;;;9.03;6.03;;;8.60;95.00;;;;;;4990161;28;20211;-58
2021/12/13 09:43:41;;;;;;;11.53;6.00;;;8.60;91.60;;;;;;4990239;28;20210;-57
2021/12/13 09:46:09;;;;;;;11.07;6.07;;;8.60;87.20;;;;;;4989988;28;20223;-57
2021/12/13 09:48:40;;;;;;;11.40;6.53;;;8.60;57.70;;;;;;4989617;28;20259;-56
2021/12/13 09:51:12;;;;;;;11.43;6.20;;;8.60;56.90;;;;;;4989238;28;20725;-56
2021/12/13 09:53:40;;;;;;;7.20;5.30;;;8.60;48.20;;;;;;4989755;28;20672;-57
2021/12/13 09:56:10;;;;;;;8.90;5.40;;;8.70;40.30;;;;;;4989447;28;20288;-58
2021/12/13 09:58:42;;;;;;;6.93;5.43;;;8.70;34.10;;;;;;4989623;28;20245;-52
2021/12/13 10:01:12;;;;;;;10.50;5.60;;;8.70;23.90;;;;;;4989516;28;20208;-55
2021/12/13 10:03:48;;;;;;;8.17;5.47;;;8.70;23.70;;;;;;4989392;28;20221;-56
2021/12/13 10:06:18;;;;;;;8.43;5.40;;;8.80;20.90;;;;;;4989502;28;20214;-56
2021/12/13 10:08:49;;;;;;;7.73;5.40;;;8.80;8.10;;;;;;4989356;28;20212;-57
2021/12/13 10:11:20;;;;;;;8.43;5.53;;;8.80;1.00;;;;;;4988844;28;20222;-57
2021/12/13 10:13:48;;;;;;;8.23;6.03;;;8.80;1.00;;;;;;4989165;28;20682;-59
2021/12/13 10:16:21;;;;;;;8.10;5.20;;;8.80;1.00;;;;;;4989322;28;20211;-58
2021/12/13 10:18:52;;;;;;;8.73;5.40;;;8.80;1.00;;;;;;4989411;28;20216;-58
2021/12/13 10:21:22;;;;;;;7.80;5.43;;;8.70;1.00;;;;;;4991952;28;20204;-58
2021/12/13 10:23:53;;;;;;;7.27;4.83;;;8.80;1.00;;;;;;5047571;28;20215;-58
2021/12/13 10:26:21;;;;;;;6.17;4.83;;;8.80;1.00;;;;;;5078269;28;20207;-61
2021/12/13 10:28:55;;;;;;;8.87;5.67;;;8.70;1.00;;;;;;5078407;28;20219;-57
2021/12/13 10:31:26;;;;;;;7.20;5.17;;;8.70;1.00;;;;;;5077706;28;20240;-58
2021/12/13 10:33:57;;;;;;;10.93;5.40;;;8.70;2.40;;;;;;5077736;28;20809;-57
2021/12/13 10:36:27;;;;;;;10.33;5.63;;;8.80;8.90;;;;;;5077663;28;20203;-56
2021/12/13 10:38:56;;;;;;;9.43;5.53;;;8.70;1.00;;;;;;5077679;28;20300;-57
2021/12/13 10:41:27;;;;;;;7.17;4.70;;;8.80;1.00;;;;;;5077642;28;20211;-61
2021/12/13 10:43:57;;;;;;;7.60;4.70;;;8.80;1.00;;;;;;5077876;28;20208;-58
2021/12/13 10:46:26;;;;;;;7.03;5.13;;;8.80;1.00;;;;;;5077839;28;20688;-60
2021/12/13 10:48:58;;;;;;;7.27;4.80;;;8.80;1.00;;;;;;5078261;28;20212;-60
2021/12/13 10:51:28;;;;;;;5.93;4.63;;;8.90;1.00;;;;;;5077475;28;20430;-61
2021/12/13 10:53:56;;;;;;;8.40;4.93;;;8.80;1.00;;;;;;5077728;28;20212;-57
2021/12/13 10:56:25;;;;;;;8.67;5.30;;;8.80;1.00;;;;;;5077675;28;20208;-59
2021/12/13 10:58:55;;;;;;;7.80;5.73;;;8.80;1.00;;;;;;5077200;28;20211;-60
2021/12/13 11:01:25;;;;;;;8.63;5.13;;;8.80;1.00;;;;;;5076216;28;20231;-62
2021/12/13 11:03:54;;;;;;;5.67;4.27;;;8.80;1.00;;;;;;5077608;28;20212;-60
2021/12/13 11:06:24;;;;;;;7.03;4.60;;;8.80;1.00;;;;;;5077778;28;20207;-59
2021/12/13 11:08:51;;;;;;;7.67;5.00;;;8.80;1.00;;;;;;5077830;28;20210;-65
2021/12/13 11:11:22;;;;;;;6.17;4.40;;;8.70;1.00;;;;;;5076982;28;20684;-62
2021/12/13 11:13:52;;;;;;;6.17;4.77;;;8.70;7.60;;;;;;5077072;28;20216;-61
2021/12/13 11:16:23;;;;;;;7.63;5.23;;;8.70;9.30;;;;;;5077711;28;20241;-62
2021/12/13 11:18:50;;;;;;;7.63;5.57;;;8.70;22.30;;;;;;5077134;28;20235;-60
2021/12/13 11:21:21;;;;;;;8.93;5.70;;;8.70;19.30;;;;;;5074030;28;20247;-61
2021/12/13 11:23:50;;;;;;;7.17;5.07;;;8.70;19.40;;;;;;5077530;28;20215;-59
2021/12/13 11:26:20;;;;;;;7.27;5.40;;;8.70;24.80;;;;;;5077160;28;20212;-62
2021/12/13 11:28:47;;;;;;;8.47;6.10;;;8.70;27.10;;;;;;5077539;28;20212;-61
2021/12/13 11:31:23;;;;;;;6.07;5.33;;;8.70;38.00;;;;;;5076964;28;20615;-61
2021/12/13 11:34:28;;;;;;;7.30;6.03;;;8.70;42.90;;;;;;5073663;28;20260;-59
2021/12/13 11:37:32;;;;;;;6.07;4.87;;;8.80;44.50;;;;;;5073805;28;20216;-61
2021/12/13 11:40:21;;;;;;;7.87;5.60;;;8.70;32.70;;;;;;5074254;28;20243;-56
2021/12/13 11:43:11;;;;;;;5.97;5.30;;;8.70;44.50;;;;;;5068710;28;20625;-59
2021/12/13 11:46:15;;;;;;;7.70;5.40;;;8.70;45.50;;;;;;4952860;28;20626;-58
2021/12/13 11:49:13;;;;;;;6.40;5.47;;;8.80;57.70;;;;;;4952540;29;20734;-61
2021/12/13 11:52:01;;;;;;;6.07;5.20;;;8.80;55.10;;;;;;4951856;29;20559;-56
2021/12/13 11:54:47;;;;;;;6.23;5.63;;;8.80;39.20;;;;;;4952361;28;20240;-58
2021/12/13 11:57:43;;;;;;;6.57;5.27;;;8.80;30.10;;;;;;4952488;29;20215;-57
2021/12/13 12:00:25;;;;;;;7.87;5.30;;;8.90;38.40;;;;;;4952128;28;20658;-56
2021/12/13 12:03:32;;;;;;;5.80;4.87;;;8.90;36.20;;;;;;4955996;28;20267;-58
2021/12/13 12:06:53;;;;;;;6.90;5.03;;;8.90;33.70;;;;;;5073044;28;20775;-54
2021/12/13 12:09:46;;;;;;;5.97;4.50;;;8.90;34.30;;;;;;5073531;28;20218;-56
2021/12/13 12:12:28;;;;;;;5.47;4.60;;;8.90;12.40;;;;;;5072594;28;20216;-59
2021/12/13 12:15:00;;;;;;;7.63;4.57;;;8.90;1.00;;;;;;5073324;28;20645;-58
2021/12/13 12:17:27;;;;;;;5.47;4.33;;;8.90;1.00;;;;;;5073003;28;20211;-54
2021/12/13 12:19:54;;;;;;;5.23;4.73;;;9.00;1.00;;;;;;5073316;28;20225;-55
2021/12/13 12:22:22;;;;;;;4.73;4.00;;;9.00;1.00;;;;;;5072203;28;20738;-55
2021/12/13 12:24:51;;;;;;;6.07;4.43;;;9.00;1.00;;;;;;5072533;28;20232;-56
2021/12/13 12:27:21;;;;;;;4.73;3.60;;;9.00;1.00;;;;;;5072999;28;20212;-57
2021/12/13 12:29:51;;;;;;;6.43;4.30;;;9.10;1.00;;;;;;5072938;28;20211;-55
2021/12/13 12:32:22;;;;;;;6.37;4.30;;;9.10;1.00;;;;;;5072194;28;20698;-58
2021/12/13 12:34:54;;;;;;;12.20;5.00;;;9.10;1.00;;;;;;5072630;28;20587;-56
2021/12/13 12:37:59;;;;;;;6.30;4.40;;;9.00;1.00;;;;;;5072519;28;20233;-57
2021/12/13 12:40:31;;;;;;;7.00;4.57;;;9.00;1.00;;;;;;5072524;28;20257;-58
2021/12/13 12:43:01;;;;;;;6.33;4.87;;;8.90;1.00;;;;;;5072220;28;20296;-59
2021/12/13 12:45:35;;;;;;;6.40;4.77;;;8.90;1.00;;;;;;5071140;28;20610;-59
2021/12/13 12:48:11;;;;;;;6.77;4.83;;;9.00;1.00;;;;;;5072969;28;20222;-58
2021/12/13 12:50:49;;;;;;;6.73;4.50;;;9.00;1.00;;;;;;5072489;28;20733;-58
2021/12/13 12:53:19;;;;;;;6.40;5.13;;;9.00;1.00;;;;;;5071995;28;20220;-60
2021/12/13 12:55:49;;;;;;;5.67;4.53;;;8.90;1.00;;;;;;5072414;28;20281;-60
2021/12/13 12:58:21;;;;;;;6.10;4.87;;;9.00;1.00;;;;;;5072033;28;20223;-58
2021/12/13 13:00:54;;;;;;;6.20;5.10;;;9.00;1.00;;;;;;5071999;28;20583;-57
2021/12/13 13:03:24;;;;;;;7.23;5.27;;;9.10;1.00;;;;;;5071870;28;20242;-58
2021/12/13 13:05:51;;;;;;;5.73;4.70;;;9.10;1.00;;;;;;5072117;28;20228;-57
2021/12/13 13:08:28;;;;;;;7.00;4.53;;;9.10;1.00;;;;;;5071895;28;20560;-59
2021/12/13 13:11:20;;;;;;;4.90;4.40;;;9.20;1.00;;;;;;5072177;28;20206;-60
2021/12/13 13:13:45;;;;;;;5.53;4.47;;;9.20;1.00;;;;;;5071927;28;20205;-58
2021/12/13 13:16:17;;;;;;;6.20;4.70;;;9.30;1.00;;;;;;5072036;28;20228;-58
2021/12/13 13:18:44;;;;;;;6.23;4.40;;;9.40;1.00;;;;;;5072252;28;20219;-56
2021/12/13 13:21:11;;;;;;;5.00;3.87;;;9.40;1.00;;;;;;5071222;28;20229;-54
2021/12/13 13:23:42;;;;;;;5.97;4.37;;;9.40;1.00;;;;;;5072380;28;20630;-57
2021/12/13 13:26:09;;;;;;;7.10;4.10;;;9.50;1.00;;;;;;5071898;28;20232;-58